createdAt,value
2018-03-23T11:55:01.112Z,23.10
2018-03-23T11:57:28.827Z,22.90
2018-03-23T11:59:56.400Z,22.90
2018-03-23T12:02:23.955Z,22.40
2018-03-23T12:04:51.623Z,22.30
2018-03-23T12:07:19.974Z,22.10
2018-03-23T12:09:47.595Z,22.10
2018-03-23T12:12:15.211Z,22.30
2018-03-23T12:14:42.778Z,22.40
2018-03-23T12:17:10.329Z,22.80
2018-03-23T12:19:37.912Z,22.50
2018-03-23T12:22:06.556Z,22.80
2018-03-23T12:24:34.134Z,22.90
2018-03-23T12:27:01.736Z,22.20
2018-03-23T12:29:29.448Z,21.90
2018-03-23T12:31:57.068Z,22.30
2018-03-23T12:34:24.664Z,22.30
2018-03-23T12:36:52.204Z,20.90
2018-03-23T12:39:19.861Z,20.80
2018-03-23T12:41:47.444Z,21.10
2018-03-23T12:44:15.028Z,21.40
2018-03-23T12:46:42.582Z,21.90
2018-03-23T12:49:10.321Z,21.90
2018-03-23T12:51:37.940Z,21.90
2018-03-23T12:54:05.468Z,21.40
2018-03-23T12:56:33.072Z,21.20
2018-03-23T12:59:00.717Z,21.70
2018-03-23T13:01:28.403Z,21.70
2018-03-23T13:03:55.967Z,21.80
2018-03-23T13:06:23.542Z,21.50
2018-03-23T13:08:51.861Z,20.40
2018-03-23T13:11:19.461Z,20.40
2018-03-23T13:13:47.040Z,20.00
2018-03-23T13:16:15.401Z,20.20
2018-03-23T13:18:43.123Z,20.20
2018-03-23T13:21:10.686Z,20.40
2018-03-23T13:23:38.302Z,20.40
2018-03-23T13:26:05.952Z,20.20
2018-03-23T13:28:33.605Z,20.60
2018-03-23T13:31:01.262Z,20.50
2018-03-23T13:33:28.920Z,20.50
2018-03-23T13:35:56.570Z,20.80
2018-03-23T13:38:24.117Z,21.00
2018-03-23T13:40:51.819Z,20.40
2018-03-23T13:43:19.421Z,19.30
2018-03-23T13:45:46.979Z,18.50
2018-03-23T13:48:14.544Z,18.90
2018-03-23T13:50:43.024Z,19.10
2018-03-23T13:53:10.623Z,19.10
2018-03-23T13:55:38.280Z,18.80
2018-03-23T13:58:05.897Z,17.90
2018-03-23T14:00:39.080Z,17.30
2018-03-23T14:03:06.705Z,16.80
2018-03-23T14:05:34.317Z,15.90
2018-03-23T14:08:02.012Z,15.40
2018-03-23T14:10:29.554Z,14.90
2018-03-23T14:12:57.119Z,14.50
2018-03-23T14:15:24.697Z,13.70
2018-03-23T14:17:52.277Z,13.60
2018-03-23T14:20:19.930Z,13.20
2018-03-23T14:22:47.591Z,13.10
2018-03-23T14:25:15.202Z,13.00
2018-03-23T14:27:42.786Z,12.70
2018-03-23T14:30:10.458Z,12.60
2018-03-23T14:32:38.068Z,12.60
2018-03-23T14:35:05.683Z,12.30
2018-03-23T14:37:33.260Z,12.10
2018-03-23T14:40:00.916Z,12.00
2018-03-23T14:42:28.509Z,11.80
2018-03-23T14:44:56.124Z,11.80
2018-03-23T14:47:23.650Z,12.00
2018-03-23T14:49:51.259Z,12.10
2018-03-23T14:52:18.971Z,12.20
2018-03-23T14:54:46.589Z,12.10
2018-03-23T14:57:14.187Z,12.00
2018-03-23T14:59:41.811Z,12.10
2018-03-23T15:02:09.487Z,12.00
2018-03-23T15:04:37.081Z,11.70
2018-03-23T15:07:05.355Z,11.80
2018-03-23T15:09:33.038Z,11.70
2018-03-23T15:12:00.607Z,11.80
2018-03-23T15:14:31.228Z,11.80
2018-03-23T15:16:58.828Z,11.80
2018-03-23T15:19:26.464Z,11.80
2018-03-23T15:21:54.029Z,11.90
2018-03-23T15:24:21.799Z,11.90
2018-03-23T15:26:49.400Z,12.20
2018-03-23T15:29:16.977Z,12.40
2018-03-23T15:31:44.610Z,12.80
2018-03-23T15:34:12.253Z,12.80
2018-03-23T15:36:39.832Z,12.90
2018-03-23T15:39:07.788Z,12.60
2018-03-23T15:41:35.452Z,12.30
2018-03-23T15:44:03.004Z,12.10
2018-03-23T15:46:30.609Z,11.80
2018-03-23T15:48:58.243Z,11.50
2018-03-23T15:51:25.801Z,11.20
2018-03-23T15:53:53.464Z,10.80
2018-03-23T15:56:21.081Z,10.50
2018-03-23T15:58:48.685Z,10.30
2018-03-23T16:01:17.988Z,10.20
2018-03-23T16:03:45.533Z,10.10
2018-03-23T16:06:13.193Z,10.10
2018-03-23T16:08:40.738Z,10.00
2018-03-23T16:11:08.426Z,10.00
2018-03-23T16:13:35.967Z,9.70
2018-03-23T16:16:03.640Z,9.40
2018-03-23T16:18:31.215Z,9.30
2018-03-23T16:20:58.773Z,9.10
2018-03-23T16:23:26.637Z,8.90
2018-03-23T16:25:55.705Z,8.90
2018-03-23T16:28:23.437Z,8.90
2018-03-23T16:30:51.040Z,8.90
2018-03-23T16:33:18.679Z,8.90
2018-03-23T16:35:46.265Z,8.90
2018-03-23T16:38:13.888Z,8.80
2018-03-23T16:40:41.462Z,8.80
2018-03-23T16:43:09.088Z,8.80
2018-03-23T16:45:36.684Z,8.80
2018-03-23T16:48:04.261Z,8.60
2018-03-23T16:50:31.824Z,8.50
2018-03-23T16:52:59.368Z,8.30
2018-03-23T16:55:26.901Z,8.30
2018-03-23T16:57:54.534Z,8.10
2018-03-23T17:00:23.400Z,7.90
2018-03-23T17:02:51.253Z,7.80
2018-03-23T17:05:18.830Z,7.70
2018-03-23T17:07:46.370Z,7.70
2018-03-23T17:10:14.679Z,7.50
2018-03-23T17:12:42.305Z,7.50
2018-03-23T17:15:09.986Z,7.30
2018-03-23T17:17:38.370Z,7.20
2018-03-23T17:20:05.959Z,7.10
2018-03-23T17:22:33.524Z,7.00
2018-03-23T17:25:01.180Z,7.00
2018-03-23T17:27:28.740Z,7.00
2018-03-23T17:29:56.463Z,7.00
2018-03-23T17:32:24.142Z,7.00
2018-03-23T17:34:52.036Z,6.90
2018-03-23T17:37:19.626Z,6.80
2018-03-23T17:39:47.956Z,6.70
2018-03-23T17:42:15.573Z,6.60
2018-03-23T17:44:43.146Z,6.70
2018-03-23T17:47:10.781Z,6.50
2018-03-23T17:49:38.394Z,6.50
2018-03-23T17:52:06.051Z,6.40
2018-03-23T17:54:33.724Z,6.40
2018-03-23T17:57:02.255Z,6.40
2018-03-23T17:59:29.853Z,6.30
2018-03-23T18:01:57.568Z,6.20
2018-03-23T18:04:26.210Z,6.00
2018-03-23T18:06:53.935Z,6.00
2018-03-23T18:09:21.524Z,6.00
2018-03-23T18:11:49.214Z,5.90
2018-03-23T18:14:16.741Z,5.70
2018-03-23T18:16:44.310Z,5.80
2018-03-23T18:19:12.068Z,5.70
2018-03-23T18:21:39.674Z,5.60
2018-03-23T18:24:07.338Z,5.50
2018-03-23T18:26:34.916Z,5.50
2018-03-23T18:29:03.284Z,5.50
2018-03-23T18:31:31.635Z,5.40
2018-03-23T18:33:59.336Z,5.40
2018-03-23T18:36:26.856Z,5.30
2018-03-23T18:38:54.420Z,5.20
2018-03-23T18:41:22.089Z,5.10
2018-03-23T18:43:49.696Z,5.10
2018-03-23T18:46:17.257Z,5.10
2018-03-23T18:48:44.868Z,5.10
2018-03-23T18:51:12.459Z,5.00
2018-03-23T18:53:40.011Z,5.00
2018-03-23T18:56:07.695Z,5.00
2018-03-23T18:58:35.288Z,5.00
2018-03-23T19:01:02.926Z,5.00
2018-03-23T19:03:31.192Z,4.90
2018-03-23T19:05:58.843Z,4.90
2018-03-23T19:08:26.550Z,4.90
2018-03-23T19:10:54.190Z,4.90
2018-03-23T19:13:21.860Z,4.90
2018-03-23T19:15:49.411Z,4.80
2018-03-23T19:18:16.949Z,4.70
2018-03-23T19:20:44.608Z,4.70
2018-03-23T19:23:12.952Z,4.60
2018-03-23T19:25:40.565Z,4.60
2018-03-23T19:28:08.148Z,4.60
2018-03-23T19:30:35.753Z,4.50
2018-03-23T19:33:03.281Z,4.50
2018-03-23T19:35:30.869Z,4.50
2018-03-23T19:37:58.518Z,4.50
2018-03-23T19:40:26.130Z,4.50
2018-03-23T19:42:53.752Z,4.40
2018-03-23T19:45:21.428Z,4.40
2018-03-23T19:47:49.053Z,4.40
2018-03-23T19:50:16.723Z,4.30
2018-03-23T19:52:44.334Z,4.30
2018-03-23T19:55:11.973Z,4.30
2018-03-23T19:57:40.347Z,4.30
2018-03-23T20:00:08.046Z,4.30
2018-03-23T20:02:36.444Z,4.30
2018-03-23T20:05:04.048Z,4.30
2018-03-23T20:07:31.603Z,4.30
2018-03-23T20:09:59.235Z,4.20
2018-03-23T20:12:26.974Z,4.20
2018-03-23T20:14:54.553Z,4.20
2018-03-23T20:17:27.717Z,4.10
2018-03-23T20:19:55.252Z,4.10
2018-03-23T20:22:22.800Z,4.10
2018-03-23T20:24:50.449Z,4.00
2018-03-23T20:27:23.626Z,4.00
2018-03-23T20:29:51.250Z,3.90
2018-03-23T20:32:24.576Z,3.80
2018-03-23T20:34:52.377Z,3.80
2018-03-23T20:37:19.990Z,3.70
2018-03-23T20:39:47.634Z,3.70
2018-03-23T20:42:15.328Z,3.70
2018-03-23T20:44:43.516Z,3.60
2018-03-23T20:47:11.207Z,3.60
2018-03-23T20:49:38.826Z,3.60
2018-03-23T20:52:06.432Z,3.60
2018-03-23T20:54:34.052Z,3.60
2018-03-23T20:57:01.685Z,3.60
2018-03-23T20:59:29.406Z,3.60
2018-03-23T21:01:56.972Z,3.60
2018-03-23T21:04:24.589Z,3.60
2018-03-23T21:06:52.211Z,3.50
2018-03-23T21:09:19.856Z,3.50
2018-03-23T21:11:47.498Z,3.40
2018-03-23T21:14:15.171Z,3.40
2018-03-23T21:16:42.840Z,3.40
2018-03-23T21:19:10.581Z,3.40
2018-03-23T21:21:38.208Z,3.50
2018-03-23T21:24:05.805Z,3.50
2018-03-23T21:26:33.553Z,3.40
2018-03-23T21:29:02.659Z,3.40
2018-03-23T21:31:30.265Z,3.40
2018-03-23T21:33:57.963Z,3.40
2018-03-23T21:36:25.693Z,3.40
2018-03-23T21:38:53.310Z,3.40
2018-03-23T21:41:21.107Z,3.40
2018-03-23T21:43:48.740Z,3.40
2018-03-23T21:46:16.399Z,3.40
2018-03-23T21:48:44.057Z,3.30
2018-03-23T21:51:11.711Z,3.30
2018-03-23T21:53:39.332Z,3.20
2018-03-23T21:56:06.908Z,3.20
2018-03-23T21:58:34.741Z,3.10
2018-03-23T22:01:06.344Z,3.10
2018-03-23T22:03:34.018Z,3.10
2018-03-23T22:06:03.350Z,3.00
2018-03-23T22:08:30.948Z,3.00
2018-03-23T22:10:58.562Z,3.00
2018-03-23T22:13:26.236Z,3.00
2018-03-23T22:15:53.997Z,2.90
2018-03-23T22:18:21.636Z,2.90
2018-03-23T22:20:49.440Z,2.80
2018-03-23T22:23:17.140Z,2.80
2018-03-23T22:25:44.749Z,2.80
2018-03-23T22:28:12.499Z,2.80
2018-03-23T22:30:40.237Z,2.80
2018-03-23T22:33:07.814Z,2.80
2018-03-23T22:35:35.609Z,2.80
2018-03-23T22:38:03.268Z,2.70
2018-03-23T22:40:30.908Z,2.70
2018-03-23T22:42:58.481Z,2.60
2018-03-23T22:45:26.124Z,2.60
2018-03-23T22:47:53.754Z,2.60
2018-03-23T22:50:21.478Z,2.60
2018-03-23T22:52:49.141Z,2.60
2018-03-23T22:55:16.779Z,2.60
2018-03-23T22:57:44.414Z,2.60
